createdAt,value
2022-08-17T00:00:42.958Z,101011.55
2022-08-17T00:03:11.298Z,101008.61
2022-08-17T00:06:07.209Z,101003.81
2022-08-17T00:08:39.833Z,101012.17
2022-08-17T00:11:12.498Z,101016.55
2022-08-17T00:13:48.119Z,101024.92
2022-08-17T00:16:55.440Z,101027.23
2022-08-17T00:19:23.784Z,101020.70
2022-08-17T00:22:32.060Z,101024.16
2022-08-17T00:24:44.400Z,101019.49
2022-08-17T00:27:12.644Z,101001.47
2022-08-17T00:29:41.219Z,101011.46
2022-08-17T00:33:14.210Z,101011.30
2022-08-17T00:34:57.628Z,101010.74
2022-08-17T00:37:25.816Z,101012.48
2022-08-17T00:39:54.130Z,101012.72
2022-08-17T00:42:22.360Z,101011.89
2022-08-17T00:44:50.788Z,101012.73
2022-08-17T00:47:19.022Z,101017.01
2022-08-17T00:49:47.335Z,101018.80
2022-08-17T00:52:21.855Z,101016.92
2022-08-17T00:54:53.051Z,101023.25
2022-08-17T00:57:33.163Z,101021.60
2022-08-17T01:00:07.084Z,101022.33
2022-08-17T01:02:42.712Z,101019.80
2022-08-17T01:05:21.141Z,101019.98
2022-08-17T01:07:53.055Z,101013.35
2022-08-17T01:11:00.533Z,101015.25
2022-08-17T01:13:17.096Z,101016.95
2022-08-17T01:15:57.588Z,101020.05
2022-08-17T01:18:27.062Z,101017.55
2022-08-17T01:20:57.824Z,101014.96
2022-08-17T01:23:29.004Z,101018.81
2022-08-17T01:25:59.976Z,101024.11
2022-08-17T01:28:36.389Z,101023.15
2022-08-17T01:31:19.923Z,101026.45
2022-08-17T01:33:48.167Z,101024.49
2022-08-17T01:36:16.375Z,101023.71
2022-08-17T01:38:44.643Z,101023.09
2022-08-17T01:41:16.681Z,101025.73
2022-08-17T01:43:51.163Z,101007.65
2022-08-17T01:46:24.477Z,101024.91
2022-08-17T01:48:53.737Z,101021.93
2022-08-17T01:51:22.539Z,101020.76
2022-08-17T01:53:57.657Z,101015.17
2022-08-17T01:56:28.810Z,101018.41
2022-08-17T01:58:57.466Z,101013.30
2022-08-17T02:01:29.612Z,101010.64
2022-08-17T02:04:00.462Z,101013.66
2022-08-17T02:06:52.431Z,101012.48
2022-08-17T02:09:23.338Z,101014.73
2022-08-17T02:11:58.597Z,101015.70
2022-08-17T02:14:27.238Z,101013.90
2022-08-17T02:16:56.253Z,101012.09
2022-08-17T02:19:24.517Z,101013.02
2022-08-17T02:21:54.324Z,101004.89
2022-08-17T02:25:01.115Z,101016.35
2022-08-17T02:27:20.574Z,101015.50
2022-08-17T02:29:48.822Z,101015.40
2022-08-17T02:32:27.561Z,101017.02
2022-08-17T02:35:00.333Z,101014.16
2022-08-17T02:37:30.073Z,101013.43
2022-08-17T02:39:59.685Z,101011.34
2022-08-17T02:42:33.918Z,101012.29
2022-08-17T02:45:03.168Z,101012.47
2022-08-17T02:47:31.506Z,101014.02
2022-08-17T02:49:59.900Z,101012.00
2022-08-17T02:52:43.492Z,101011.55
2022-08-17T02:55:29.909Z,101009.44
2022-08-17T02:57:58.666Z,101008.77
2022-08-17T03:00:34.014Z,101003.95
2022-08-17T03:03:04.849Z,101005.84
2022-08-17T03:05:36.122Z,101003.11
2022-08-17T03:08:05.953Z,101007.08
2022-08-17T03:10:34.673Z,101006.23
2022-08-17T03:13:03.264Z,101004.56
2022-08-17T03:15:34.350Z,101004.59
2022-08-17T03:18:03.736Z,101008.81
2022-08-17T03:20:33.309Z,101014.82
2022-08-17T03:23:02.744Z,101013.27
2022-08-17T03:25:35.517Z,101014.10
2022-08-17T03:28:05.001Z,101014.90
2022-08-17T03:30:34.485Z,101018.56
2022-08-17T03:33:05.666Z,101018.59
2022-08-17T03:35:36.625Z,101020.45
2022-08-17T03:38:05.298Z,101016.67
2022-08-17T03:40:34.494Z,101019.86
2022-08-17T03:43:22.897Z,101021.71
2022-08-17T03:46:34.004Z,101027.39
2022-08-17T03:49:17.030Z,101029.73
2022-08-17T03:52:03.812Z,101015.04
2022-08-17T03:54:50.518Z,101035.00
2022-08-17T03:57:19.416Z,101021.45
2022-08-17T03:59:47.910Z,101037.15
2022-08-17T04:02:20.189Z,101040.23
2022-08-17T04:04:51.299Z,101034.79
2022-08-17T04:07:24.361Z,101043.33
2022-08-17T04:09:52.505Z,101040.83
2022-08-17T04:12:23.615Z,101046.05
2022-08-17T04:14:54.673Z,101047.59
2022-08-17T04:17:28.562Z,101049.70
2022-08-17T04:19:57.392Z,101051.90
2022-08-17T04:22:31.347Z,101052.54
2022-08-17T04:25:23.977Z,101037.89
2022-08-17T04:27:52.453Z,101046.40
2022-08-17T04:30:21.285Z,101042.72
2022-08-17T04:33:06.157Z,101046.27
2022-08-17T04:35:41.910Z,101052.50
2022-08-17T04:38:15.907Z,101060.24
2022-08-17T04:41:02.721Z,101065.52
2022-08-17T04:43:33.000Z,101064.93
2022-08-17T04:46:05.539Z,101064.00
2022-08-17T04:48:45.904Z,101062.04
2022-08-17T04:51:27.947Z,101062.70
2022-08-17T04:53:59.491Z,101063.63
2022-08-17T04:56:29.537Z,101069.13
2022-08-17T04:59:01.449Z,101068.59
2022-08-17T05:01:32.462Z,101070.30
2022-08-17T05:04:33.159Z,101072.69
2022-08-17T05:06:54.685Z,101069.05
2022-08-17T05:09:23.005Z,101070.25
2022-08-17T05:11:52.708Z,101067.31
2022-08-17T05:14:32.930Z,101067.41
2022-08-17T05:17:07.088Z,101070.23
2022-08-17T05:19:39.550Z,101068.27
2022-08-17T05:22:07.953Z,101068.14
2022-08-17T05:24:42.727Z,101067.23
2022-08-17T05:27:19.067Z,101064.48
2022-08-17T05:29:47.481Z,101064.86
2022-08-17T05:32:39.173Z,101059.72
2022-08-17T05:35:05.557Z,101049.98
2022-08-17T05:37:33.741Z,101066.97
2022-08-17T05:40:02.066Z,101067.63
2022-08-17T05:42:30.351Z,101055.27
2022-08-17T05:44:59.030Z,101068.95
2022-08-17T05:47:27.742Z,101074.57
2022-08-17T05:49:56.414Z,101079.48
2022-08-17T05:53:02.357Z,101084.33
2022-08-17T05:55:42.386Z,101083.45
2022-08-17T05:58:39.647Z,101083.33
2022-08-17T06:01:15.939Z,101085.90
2022-08-17T06:03:44.133Z,101087.48
2022-08-17T06:06:40.862Z,101087.97
2022-08-17T06:09:25.739Z,101080.95
2022-08-17T06:12:32.814Z,101088.98
2022-08-17T06:15:26.373Z,101079.98
2022-08-17T06:17:58.674Z,101086.19
2022-08-17T06:20:38.692Z,101096.61
2022-08-17T06:23:12.314Z,101093.17
2022-08-17T06:25:50.430Z,101094.92
2022-08-17T06:28:30.586Z,101099.20
2022-08-17T06:31:05.881Z,101097.48
2022-08-17T06:33:37.682Z,101098.19
2022-08-17T06:36:13.796Z,101099.89
2022-08-17T06:38:53.710Z,101101.02
2022-08-17T06:41:32.617Z,101099.83
2022-08-17T06:44:43.390Z,101100.55
2022-08-17T06:47:13.730Z,101100.10
2022-08-17T06:49:44.935Z,101096.92
2022-08-17T06:52:45.835Z,101101.75
2022-08-17T06:55:20.401Z,101095.34
2022-08-17T06:57:58.217Z,101100.64
2022-08-17T07:00:47.865Z,101069.02
2022-08-17T07:03:39.912Z,101098.87
2022-08-17T07:06:15.108Z,101099.53
2022-08-17T07:09:01.223Z,101101.96
2022-08-17T07:11:36.903Z,101104.52
2022-08-17T07:14:37.709Z,101108.18
2022-08-17T07:17:12.260Z,101101.83
2022-08-17T07:19:45.730Z,101106.73
2022-08-17T07:22:16.581Z,101105.60
2022-08-17T07:24:47.525Z,101110.77
2022-08-17T07:27:22.165Z,101107.92
2022-08-17T07:29:53.856Z,101107.84
2022-08-17T07:32:27.533Z,101108.77
2022-08-17T07:35:17.491Z,101107.15
2022-08-17T07:38:24.857Z,101096.94
2022-08-17T07:41:03.819Z,101101.55
2022-08-17T07:43:38.132Z,101103.23
2022-08-17T07:46:42.940Z,101102.48
2022-08-17T07:49:11.343Z,101098.92
2022-08-17T07:51:44.301Z,101100.77
2022-08-17T07:54:15.346Z,101098.58
2022-08-17T07:56:45.887Z,101102.42
2022-08-17T07:59:23.198Z,101095.42
2022-08-17T08:01:57.599Z,101092.45
2022-08-17T08:05:00.581Z,101091.18
2022-08-17T08:07:36.089Z,101089.73
2022-08-17T08:10:07.209Z,101096.43
2022-08-17T08:12:43.456Z,101096.02
2022-08-17T08:15:19.083Z,101097.66
2022-08-17T08:17:54.601Z,101097.28
2022-08-17T08:20:51.556Z,101091.02
2022-08-17T08:23:50.956Z,101094.36
2022-08-17T08:26:39.788Z,101094.11
2022-08-17T08:29:32.905Z,101094.64
2022-08-17T08:32:25.743Z,101095.80
2022-08-17T08:35:29.779Z,101102.40
2022-08-17T08:38:20.199Z,101098.93
2022-08-17T08:40:51.328Z,101105.54
2022-08-17T08:43:19.531Z,101103.23
2022-08-17T08:45:50.729Z,101107.27
2022-08-17T08:48:56.396Z,101110.23
2022-08-17T08:51:51.681Z,101103.48
2022-08-17T08:54:33.798Z,101102.33
2022-08-17T08:57:29.176Z,101096.14
2022-08-17T09:00:20.870Z,101099.78
2022-08-17T09:03:13.381Z,101091.84
2022-08-17T09:06:06.953Z,101094.23
2022-08-17T09:09:10.420Z,101095.13
2022-08-17T09:12:01.162Z,101094.33
2022-08-17T09:14:50.052Z,101095.38
2022-08-17T09:17:30.211Z,101095.52
2022-08-17T09:20:28.237Z,101093.98
2022-08-17T09:23:08.808Z,101091.53
2022-08-17T09:25:51.812Z,101084.29
2022-08-17T09:28:28.177Z,101096.61
2022-08-17T09:31:04.804Z,101098.00
2022-08-17T09:33:40.096Z,101099.90
2022-08-17T09:36:26.439Z,101096.85
2022-08-17T09:39:01.807Z,101090.79
2022-08-17T09:41:51.840Z,101101.20
2022-08-17T09:44:36.231Z,101099.42
2022-08-17T09:47:19.440Z,101102.90
2022-08-17T09:49:54.388Z,101100.94
2022-08-17T09:52:29.528Z,101100.86
2022-08-17T09:55:01.084Z,101100.92
2022-08-17T09:57:38.108Z,101097.45
2022-08-17T10:00:27.618Z,101097.48
2022-08-17T10:03:25.563Z,101095.23
2022-08-17T10:06:07.885Z,101096.13
2022-08-17T10:09:10.044Z,101093.52
2022-08-17T10:12:17.355Z,101093.69
2022-08-17T10:14:55.584Z,101095.65
2022-08-17T10:17:30.317Z,101095.83
2022-08-17T10:20:12.731Z,101089.17
2022-08-17T10:23:08.293Z,101094.23
2022-08-17T10:26:00.643Z,101094.19
2022-08-17T10:28:36.996Z,101085.29
2022-08-17T10:34:28.040Z,101094.35
2022-08-17T10:37:28.667Z,101093.38
2022-08-17T10:40:15.382Z,101095.76
2022-08-17T10:42:50.395Z,101096.23
2022-08-17T10:45:26.451Z,101097.20
2022-08-17T10:48:06.167Z,101102.59
2022-08-17T10:50:57.824Z,101103.13
2022-08-17T10:53:31.954Z,101094.81
2022-08-17T10:56:12.067Z,101100.85
2022-08-17T10:58:55.447Z,101102.48
2022-08-17T11:01:32.910Z,101096.04
2022-08-17T11:04:18.171Z,101096.08
2022-08-17T11:07:14.709Z,101096.13
2022-08-17T11:10:08.698Z,101095.17
2022-08-17T11:12:55.394Z,101078.87
2022-08-17T11:15:59.106Z,101091.41
2022-08-17T11:19:10.330Z,101092.45
2022-08-17T11:21:59.726Z,101094.77
2022-08-17T11:24:31.063Z,101096.77
2022-08-17T11:27:12.122Z,101093.59
2022-08-17T11:30:01.487Z,101094.27
2022-08-17T11:32:47.492Z,101097.63
2022-08-17T11:35:22.375Z,101099.41
2022-08-17T11:38:16.276Z,101097.95
2022-08-17T11:41:00.333Z,101098.03
2022-08-17T11:43:28.415Z,101105.90
2022-08-17T11:46:20.542Z,101106.36
2022-08-17T11:49:32.830Z,101108.23
2022-08-17T11:52:01.410Z,101112.20
2022-08-17T11:54:46.472Z,101110.45
2022-08-17T11:57:26.931Z,101114.44
2022-08-17T11:59:58.444Z,101111.34
2022-08-17T12:02:32.890Z,101100.22
2022-08-17T12:05:23.175Z,101115.08
2022-08-17T12:07:57.541Z,101114.14
2022-08-17T12:10:32.144Z,101113.58
2022-08-17T12:13:13.348Z,101115.03
2022-08-17T12:15:54.184Z,101117.67
2022-08-17T12:18:24.808Z,101113.02
2022-08-17T12:21:30.687Z,101110.94
2022-08-17T12:23:58.904Z,101110.92
2022-08-17T12:26:34.085Z,101114.45
2022-08-17T12:29:17.837Z,101119.52
2022-08-17T12:32:02.267Z,101122.86
2022-08-17T12:34:36.631Z,101122.23
2022-08-17T12:37:16.396Z,101122.50
2022-08-17T12:40:04.218Z,101130.02
2022-08-17T12:42:37.433Z,101125.92
2022-08-17T12:45:21.212Z,101140.30
2022-08-17T12:47:49.586Z,101144.54
2022-08-17T12:50:29.602Z,101143.38
2022-08-17T12:53:02.321Z,101148.47
2022-08-17T12:55:37.229Z,101153.17
2022-08-17T12:58:09.872Z,101150.60
2022-08-17T13:00:48.847Z,101150.70
2022-08-17T13:03:21.088Z,101146.58
2022-08-17T13:05:52.105Z,101143.09
2022-08-17T13:08:31.772Z,101148.75
2022-08-17T13:11:04.173Z,101145.39
2022-08-17T13:13:35.427Z,101143.64
2022-08-17T13:16:26.610Z,101144.19
2022-08-17T13:19:16.735Z,101142.98
2022-08-17T13:21:55.129Z,101137.41
2022-08-17T13:24:38.217Z,101130.60
2022-08-17T13:27:08.682Z,101133.67
2022-08-17T13:29:53.603Z,101126.50
2022-08-17T13:32:45.125Z,101122.30
2022-08-17T13:35:40.003Z,101119.42
2022-08-17T13:38:15.302Z,101119.80
2022-08-17T13:40:50.813Z,101122.16
2022-08-17T13:43:49.644Z,101122.45
2022-08-17T13:46:26.309Z,101116.77
2022-08-17T13:49:02.256Z,101123.30
2022-08-17T13:51:35.256Z,101126.88
2022-08-17T13:54:08.094Z,101125.80
2022-08-17T13:56:50.132Z,101126.23
2022-08-17T13:59:53.239Z,101127.30
2022-08-17T14:02:19.936Z,101126.85
2022-08-17T14:04:48.948Z,101123.98
2022-08-17T14:07:18.317Z,101121.33
2022-08-17T14:09:49.401Z,101123.70
2022-08-17T14:12:21.733Z,101123.02
2022-08-17T14:14:49.817Z,101122.23
2022-08-17T14:17:19.152Z,101124.18
2022-08-17T14:19:48.292Z,101127.02
2022-08-17T14:22:23.808Z,101126.34
2022-08-17T14:24:52.226Z,101125.14
2022-08-17T14:27:21.225Z,101124.39
2022-08-17T14:29:49.362Z,101121.15
2022-08-17T14:32:27.173Z,101122.34
2022-08-17T14:34:57.841Z,101117.25
2022-08-17T14:37:28.613Z,101106.34
2022-08-17T14:40:03.864Z,101120.38
2022-08-17T14:42:35.227Z,101120.56
2022-08-17T14:45:06.394Z,101119.68
2022-08-17T14:47:54.517Z,101106.98
2022-08-17T14:50:24.057Z,101114.83
2022-08-17T14:52:52.367Z,101115.30
2022-08-17T14:55:21.383Z,101115.13
2022-08-17T14:57:49.752Z,101115.16
2022-08-17T15:00:18.253Z,101119.70
2022-08-17T15:02:53.904Z,101124.86
2022-08-17T15:05:24.771Z,101122.04
2022-08-17T15:07:54.006Z,101102.91
2022-08-17T15:10:23.976Z,101127.14
2022-08-17T15:12:54.588Z,101129.73
2022-08-17T15:15:23.127Z,101127.89
2022-08-17T15:17:51.783Z,101130.39
2022-08-17T15:20:24.240Z,101126.54
2022-08-17T15:22:56.230Z,101125.04
2022-08-17T15:25:30.410Z,101121.56
2022-08-17T15:27:59.540Z,101118.70
2022-08-17T15:30:29.444Z,101121.20
2022-08-17T15:32:59.580Z,101120.45
2022-08-17T15:35:32.445Z,101124.32
2022-08-17T15:38:11.334Z,101124.11
2022-08-17T15:40:44.317Z,101123.02
2022-08-17T15:43:15.615Z,101119.45
2022-08-17T15:45:43.949Z,101119.45
2022-08-17T15:48:14.780Z,101119.95
2022-08-17T15:50:45.232Z,101123.35
2022-08-17T15:53:14.304Z,101122.27
2022-08-17T15:55:43.224Z,101126.41
2022-08-17T15:58:11.563Z,101129.04
2022-08-17T16:01:06.838Z,101126.12
2022-08-17T16:03:58.047Z,101119.05
2022-08-17T16:06:17.796Z,101123.00
2022-08-17T16:08:46.107Z,101121.17
2022-08-17T16:11:17.096Z,101125.16
2022-08-17T16:13:51.300Z,101122.44
2022-08-17T16:16:23.814Z,101122.05
2022-08-17T16:18:56.340Z,101120.20
2022-08-17T16:21:29.566Z,101118.48
2022-08-17T16:24:04.141Z,101122.84
2022-08-17T16:26:35.504Z,101121.52
2022-08-17T16:29:06.860Z,101121.89
2022-08-17T16:31:36.302Z,101126.67
2022-08-17T16:34:17.304Z,101127.83
2022-08-17T16:36:55.415Z,101112.89
2022-08-17T16:39:29.346Z,101132.38
2022-08-17T16:41:57.902Z,101120.34
2022-08-17T16:44:31.016Z,101132.39
2022-08-17T16:47:01.395Z,101131.29
2022-08-17T16:49:36.762Z,101132.42
2022-08-17T16:52:10.471Z,101132.94
2022-08-17T16:54:43.813Z,101134.80
2022-08-17T16:57:13.943Z,101133.05
2022-08-17T16:59:44.913Z,101137.98
2022-08-17T17:02:14.498Z,101136.00
2022-08-17T17:05:20.830Z,101135.71
2022-08-17T17:07:55.566Z,101128.99
2022-08-17T17:10:30.938Z,101130.38
2022-08-17T17:13:03.553Z,101117.05
2022-08-17T17:15:39.809Z,101139.71
2022-08-17T17:18:13.096Z,101140.20
2022-08-17T17:20:59.426Z,101141.14
2022-08-17T17:23:43.747Z,101145.88
2022-08-17T17:26:20.113Z,101150.52
2022-08-17T17:29:00.381Z,101151.52
2022-08-17T17:31:38.525Z,101149.27
2022-08-17T17:34:10.792Z,101152.96
2022-08-17T17:36:50.856Z,101159.40
2022-08-17T17:39:43.746Z,101159.51
2022-08-17T17:42:20.628Z,101162.98
2022-08-17T17:44:59.504Z,101169.96
2022-08-17T17:47:29.704Z,101153.48
2022-08-17T17:50:01.493Z,101169.19
2022-08-17T17:52:41.186Z,101168.70
2022-08-17T17:55:18.426Z,101167.81
2022-08-17T17:57:54.586Z,101168.59
2022-08-17T18:00:49.154Z,101175.15
2022-08-17T18:03:23.189Z,101178.20
2022-08-17T18:06:06.403Z,101176.41
2022-08-17T18:08:34.828Z,101118.54
2022-08-17T18:11:12.270Z,101177.64
2022-08-17T18:13:58.950Z,101177.38
2022-08-17T18:16:31.902Z,101174.59
2022-08-17T18:19:00.604Z,101176.16
2022-08-17T18:21:44.418Z,101181.91
2022-08-17T18:24:13.465Z,101190.31
2022-08-17T18:26:42.026Z,101194.13
2022-08-17T18:29:22.418Z,101196.95
2022-08-17T18:32:16.410Z,101200.00
2022-08-17T18:34:48.385Z,101197.60
2022-08-17T18:37:43.401Z,101181.95
2022-08-17T18:40:17.951Z,101194.03
2022-08-17T18:43:05.890Z,101170.90
2022-08-17T18:45:34.111Z,101189.36
2022-08-17T18:48:02.700Z,101190.05
2022-08-17T18:50:41.501Z,101189.96
2022-08-17T18:53:40.886Z,101192.73
2022-08-17T18:56:20.725Z,101189.88
2022-08-17T18:59:11.921Z,101193.02
2022-08-17T19:01:59.853Z,101195.70
2022-08-17T19:04:59.441Z,101196.37
2022-08-17T19:07:32.178Z,101200.23
2022-08-17T19:10:09.177Z,101199.46
2022-08-17T19:12:40.330Z,101200.22
2022-08-17T19:15:12.516Z,101200.27
2022-08-17T19:17:46.419Z,101201.14
2022-08-17T19:20:17.572Z,101202.77
2022-08-17T19:22:55.941Z,101201.52
2022-08-17T19:25:29.754Z,101202.06
2022-08-17T19:28:22.273Z,101199.81
2022-08-17T19:30:56.641Z,101206.92
2022-08-17T19:33:26.311Z,101214.78
2022-08-17T19:36:24.006Z,101222.48
2022-08-17T19:39:26.434Z,101229.23
2022-08-17T19:42:18.082Z,101241.10
2022-08-17T19:44:58.930Z,101248.42
2022-08-17T19:47:53.831Z,101252.63
2022-08-17T19:50:41.197Z,101259.91
2022-08-17T19:54:01.579Z,101265.48
2022-08-17T19:56:26.900Z,101258.79
2022-08-17T19:59:11.880Z,101256.39
2022-08-17T20:02:01.132Z,101233.59
2022-08-17T20:04:32.365Z,101248.56
2022-08-17T20:07:06.451Z,101248.86
2022-08-17T20:09:38.202Z,101248.73
2022-08-17T20:12:18.685Z,101245.27
2022-08-17T20:15:27.764Z,101242.77
2022-08-17T20:18:00.109Z,101251.83
2022-08-17T20:20:35.908Z,101253.84
2022-08-17T20:23:31.895Z,101257.09
2022-08-17T20:26:18.961Z,101258.73
2022-08-17T20:29:10.449Z,101260.26
2022-08-17T20:31:58.695Z,101259.04
2022-08-17T20:34:33.574Z,101257.98
2022-08-17T20:37:14.900Z,101256.92
2022-08-17T20:40:09.293Z,101258.34
2022-08-17T20:42:37.729Z,101240.30
2022-08-17T20:45:21.160Z,101256.73
2022-08-17T20:48:18.457Z,101253.54
2022-08-17T20:50:50.734Z,101254.51
2022-08-17T20:53:52.315Z,101252.96
2022-08-17T20:56:43.507Z,101246.68
2022-08-17T20:59:20.550Z,101230.32
2022-08-17T21:02:17.664Z,101244.66
2022-08-17T21:04:50.045Z,101249.02
2022-08-17T21:07:43.597Z,101253.27
2022-08-17T21:10:18.097Z,101253.28
2022-08-17T21:12:51.542Z,101258.34
2022-08-17T21:15:38.095Z,101258.28
2022-08-17T21:18:18.456Z,101264.15
2022-08-17T21:21:20.930Z,101262.22
2022-08-17T21:24:07.033Z,101267.86
2022-08-17T21:26:39.038Z,101274.27
2022-08-17T21:29:31.889Z,101269.34
2022-08-17T21:32:02.153Z,101268.11
2022-08-17T21:34:37.285Z,101270.07
2022-08-17T21:37:20.500Z,101271.70
2022-08-17T21:39:51.926Z,101272.58
2022-08-17T21:42:29.201Z,101269.01
2022-08-17T21:45:08.114Z,101265.61
2022-08-17T21:47:40.681Z,101259.11
2022-08-17T21:50:25.175Z,101261.34
2022-08-17T21:52:54.593Z,101263.45
2022-08-17T21:55:30.291Z,101258.63
2022-08-17T21:58:14.054Z,101251.59
2022-08-17T22:00:46.355Z,101253.73
2022-08-17T22:03:30.377Z,101249.46
2022-08-17T22:05:58.518Z,101242.59
2022-08-17T22:08:26.982Z,101243.40
2022-08-17T22:11:02.150Z,101241.46
2022-08-17T22:13:30.325Z,101235.55
2022-08-17T22:16:05.900Z,101231.94
2022-08-17T22:18:53.727Z,101232.53
2022-08-17T22:21:22.441Z,101226.62
2022-08-17T22:24:04.429Z,101235.91
2022-08-17T22:27:00.395Z,101235.86
2022-08-17T22:29:46.863Z,101247.94
2022-08-17T22:32:38.514Z,101246.38
2022-08-17T22:35:32.659Z,101277.38
2022-08-17T22:38:19.103Z,101249.39
2022-08-17T22:40:53.912Z,101274.46
2022-08-17T22:43:26.304Z,101265.66
2022-08-17T22:46:00.160Z,101260.66
2022-08-17T22:48:29.091Z,101256.42
2022-08-17T22:51:14.473Z,101262.42
2022-08-17T22:54:07.997Z,101261.12
2022-08-17T22:56:55.141Z,101260.11
2022-08-17T22:59:41.949Z,101258.45
2022-08-17T23:02:14.850Z,101260.02
2022-08-17T23:05:16.613Z,101240.68
2022-08-17T23:07:46.727Z,101257.39
2022-08-17T23:10:15.498Z,101257.74
2022-08-17T23:12:43.617Z,101261.17
2022-08-17T23:15:16.294Z,101259.13
2022-08-17T23:17:45.484Z,101257.13
2022-08-17T23:20:15.739Z,101251.66
2022-08-17T23:22:52.194Z,101249.45
2022-08-17T23:25:31.041Z,101244.48
2022-08-17T23:28:03.728Z,101242.42
2022-08-17T23:30:43.422Z,101250.55
2022-08-17T23:33:39.877Z,101256.86
2022-08-17T23:36:09.883Z,101262.77
2022-08-17T23:38:38.016Z,101256.71
2022-08-17T23:41:12.269Z,101252.27
2022-08-17T23:43:56.516Z,101251.36
2022-08-17T23:46:25.240Z,101251.86
2022-08-17T23:48:54.189Z,101256.41
2022-08-17T23:51:27.528Z,101258.87
2022-08-17T23:54:05.787Z,101261.41
2022-08-17T23:56:44.579Z,101265.52
2022-08-17T23:59:15.040Z,101262.98
